sensor_id;sensor_type;location;lat;lon;timestamp;temperature;humidity
13561;DHT22;6852;51.686;5.314;2022-07-06T00:02:21;14.70;99.90
13561;DHT22;6852;51.686;5.314;2022-07-06T00:04:48;14.70;99.90
13561;DHT22;6852;51.686;5.314;2022-07-06T00:07:15;14.60;99.90
13561;DHT22;6852;51.686;5.314;2022-07-06T00:09:43;14.70;99.90
13561;DHT22;6852;51.686;5.314;2022-07-06T00:12:10;14.80;99.90
13561;DHT22;6852;51.686;5.314;2022-07-06T00:14:37;14.70;99.90
13561;DHT22;6852;51.686;5.314;2022-07-06T00:17:04;14.70;99.90
13561;DHT22;6852;51.686;5.314;2022-07-06T00:19:31;14.80;99.90
13561;DHT22;6852;51.686;5.314;2022-07-06T00:21:58;14.80;99.90
13561;DHT22;6852;51.686;5.314;2022-07-06T00:24:25;14.80;99.90
13561;DHT22;6852;51.686;5.314;2022-07-06T00:26:52;14.70;99.90
13561;DHT22;6852;51.686;5.314;2022-07-06T00:29:19;14.50;99.90
13561;DHT22;6852;51.686;5.314;2022-07-06T00:31:46;14.60;99.90
13561;DHT22;6852;51.686;5.314;2022-07-06T00:34:13;14.40;99.90
13561;DHT22;6852;51.686;5.314;2022-07-06T00:36:40;14.30;99.90
13561;DHT22;6852;51.686;5.314;2022-07-06T00:39:07;14.20;99.90
13561;DHT22;6852;51.686;5.314;2022-07-06T00:41:34;14.10;99.90
13561;DHT22;6852;51.686;5.314;2022-07-06T00:44:07;14.00;99.90
13561;DHT22;6852;51.686;5.314;2022-07-06T00:46:36;13.80;99.90
13561;DHT22;6852;51.686;5.314;2022-07-06T00:49:03;13.70;99.90
13561;DHT22;6852;51.686;5.314;2022-07-06T00:51:32;13.60;99.90
13561;DHT22;6852;51.686;5.314;2022-07-06T00:54:04;13.60;99.90
13561;DHT22;6852;51.686;5.314;2022-07-06T00:56:32;13.80;99.90
13561;DHT22;6852;51.686;5.314;2022-07-06T00:59:02;13.90;99.90
13561;DHT22;6852;51.686;5.314;2022-07-06T01:01:29;14.00;99.90
13561;DHT22;6852;51.686;5.314;2022-07-06T01:03:56;14.10;99.90
13561;DHT22;6852;51.686;5.314;2022-07-06T01:06:24;14.10;99.90
13561;DHT22;6852;51.686;5.314;2022-07-06T01:08:51;14.10;99.90
13561;DHT22;6852;51.686;5.314;2022-07-06T01:11:18;14.00;99.90
13561;DHT22;6852;51.686;5.314;2022-07-06T01:13:47;14.00;99.90
13561;DHT22;6852;51.686;5.314;2022-07-06T01:16:14;14.10;99.90
13561;DHT22;6852;51.686;5.314;2022-07-06T01:18:42;14.10;99.90
13561;DHT22;6852;51.686;5.314;2022-07-06T01:21:11;14.20;99.90
13561;DHT22;6852;51.686;5.314;2022-07-06T01:23:44;14.00;99.90
13561;DHT22;6852;51.686;5.314;2022-07-06T01:26:18;14.00;99.90
13561;DHT22;6852;51.686;5.314;2022-07-06T01:28:50;14.10;99.90
13561;DHT22;6852;51.686;5.314;2022-07-06T01:31:25;14.10;99.90
13561;DHT22;6852;51.686;5.314;2022-07-06T01:33:54;13.90;99.90
13561;DHT22;6852;51.686;5.314;2022-07-06T01:36:21;13.80;99.90
13561;DHT22;6852;51.686;5.314;2022-07-06T01:38:49;13.70;99.90
13561;DHT22;6852;51.686;5.314;2022-07-06T01:41:17;13.80;99.90
13561;DHT22;6852;51.686;5.314;2022-07-06T01:43:44;14.00;99.90
13561;DHT22;6852;51.686;5.314;2022-07-06T01:46:12;13.80;99.90
13561;DHT22;6852;51.686;5.314;2022-07-06T01:48:39;13.90;99.90
13561;DHT22;6852;51.686;5.314;2022-07-06T01:51:06;14.00;99.90
13561;DHT22;6852;51.686;5.314;2022-07-06T01:53:33;13.90;99.90
13561;DHT22;6852;51.686;5.314;2022-07-06T01:56:00;13.90;99.90
13561;DHT22;6852;51.686;5.314;2022-07-06T01:58:27;13.80;99.90
13561;DHT22;6852;51.686;5.314;2022-07-06T02:00:54;13.60;99.90
13561;DHT22;6852;51.686;5.314;2022-07-06T02:03:21;13.70;99.90
13561;DHT22;6852;51.686;5.314;2022-07-06T02:05:48;13.50;99.90
13561;DHT22;6852;51.686;5.314;2022-07-06T02:08:15;13.50;99.90
13561;DHT22;6852;51.686;5.314;2022-07-06T02:10:42;13.50;99.90
13561;DHT22;6852;51.686;5.314;2022-07-06T02:13:09;13.60;99.90
13561;DHT22;6852;51.686;5.314;2022-07-06T02:15:36;13.50;99.90
13561;DHT22;6852;51.686;5.314;2022-07-06T02:18:03;13.50;99.90
13561;DHT22;6852;51.686;5.314;2022-07-06T02:20:30;13.60;99.90
13561;DHT22;6852;51.686;5.314;2022-07-06T02:23:00;13.50;99.90
13561;DHT22;6852;51.686;5.314;2022-07-06T02:25:26;13.50;99.90
13561;DHT22;6852;51.686;5.314;2022-07-06T02:27:53;13.40;99.90
13561;DHT22;6852;51.686;5.314;2022-07-06T02:30:20;13.40;99.90
13561;DHT22;6852;51.686;5.314;2022-07-06T02:32:47;13.40;99.90
13561;DHT22;6852;51.686;5.314;2022-07-06T02:35:14;13.40;99.90
13561;DHT22;6852;51.686;5.314;2022-07-06T02:37:41;13.40;99.90
13561;DHT22;6852;51.686;5.314;2022-07-06T02:40:09;13.40;99.90
13561;DHT22;6852;51.686;5.314;2022-07-06T02:42:36;13.50;99.90
13561;DHT22;6852;51.686;5.314;2022-07-06T02:45:04;13.50;99.90
13561;DHT22;6852;51.686;5.314;2022-07-06T02:47:31;13.40;99.90
13561;DHT22;6852;51.686;5.314;2022-07-06T02:49:58;13.10;99.90
13561;DHT22;6852;51.686;5.314;2022-07-06T02:52:25;13.10;99.90
13561;DHT22;6852;51.686;5.314;2022-07-06T02:54:51;13.10;99.90
13561;DHT22;6852;51.686;5.314;2022-07-06T02:57:19;13.20;99.90
13561;DHT22;6852;51.686;5.314;2022-07-06T02:59:46;13.20;99.90
13561;DHT22;6852;51.686;5.314;2022-07-06T03:02:17;13.10;99.90
13561;DHT22;6852;51.686;5.314;2022-07-06T03:04:44;13.00;99.90
13561;DHT22;6852;51.686;5.314;2022-07-06T03:07:10;13.10;99.90
13561;DHT22;6852;51.686;5.314;2022-07-06T03:09:37;13.20;99.90
13561;DHT22;6852;51.686;5.314;2022-07-06T03:12:04;13.20;99.90
13561;DHT22;6852;51.686;5.314;2022-07-06T03:14:31;13.20;99.90
13561;DHT22;6852;51.686;5.314;2022-07-06T03:16:58;13.30;99.90
13561;DHT22;6852;51.686;5.314;2022-07-06T03:19:25;13.20;99.90
13561;DHT22;6852;51.686;5.314;2022-07-06T03:21:52;13.20;99.90
13561;DHT22;6852;51.686;5.314;2022-07-06T03:24:19;13.10;99.90
13561;DHT22;6852;51.686;5.314;2022-07-06T03:26:46;13.00;99.90
13561;DHT22;6852;51.686;5.314;2022-07-06T03:29:13;13.00;99.90
13561;DHT22;6852;51.686;5.314;2022-07-06T03:31:40;13.10;99.90
13561;DHT22;6852;51.686;5.314;2022-07-06T03:34:07;13.20;99.90
13561;DHT22;6852;51.686;5.314;2022-07-06T03:36:34;13.20;99.90
13561;DHT22;6852;51.686;5.314;2022-07-06T03:39:05;13.00;99.90
13561;DHT22;6852;51.686;5.314;2022-07-06T03:41:32;13.00;99.90
13561;DHT22;6852;51.686;5.314;2022-07-06T03:43:59;13.00;99.90
13561;DHT22;6852;51.686;5.314;2022-07-06T03:46:28;12.90;99.90
13561;DHT22;6852;51.686;5.314;2022-07-06T03:48:55;13.00;99.90
13561;DHT22;6852;51.686;5.314;2022-07-06T03:51:22;12.90;99.90
13561;DHT22;6852;51.686;5.314;2022-07-06T03:53:49;12.60;99.90
13561;DHT22;6852;51.686;5.314;2022-07-06T03:56:16;12.60;99.90
13561;DHT22;6852;51.686;5.314;2022-07-06T03:58:59;12.70;99.90
13561;DHT22;6852;51.686;5.314;2022-07-06T04:01:26;12.70;99.90
13561;DHT22;6852;51.686;5.314;2022-07-06T04:03:54;12.70;99.90
13561;DHT22;6852;51.686;5.314;2022-07-06T04:06:21;12.90;99.90
13561;DHT22;6852;51.686;5.314;2022-07-06T04:08:48;12.60;99.90
13561;DHT22;6852;51.686;5.314;2022-07-06T04:11:15;12.70;99.90
13561;DHT22;6852;51.686;5.314;2022-07-06T04:13:42;12.80;99.90
13561;DHT22;6852;51.686;5.314;2022-07-06T04:16:09;12.80;99.90
13561;DHT22;6852;51.686;5.314;2022-07-06T04:18:36;12.80;99.90
13561;DHT22;6852;51.686;5.314;2022-07-06T04:21:03;12.80;99.90
13561;DHT22;6852;51.686;5.314;2022-07-06T04:23:30;12.90;99.90
13561;DHT22;6852;51.686;5.314;2022-07-06T04:25:57;12.90;99.90
13561;DHT22;6852;51.686;5.314;2022-07-06T04:28:24;12.90;99.90
13561;DHT22;6852;51.686;5.314;2022-07-06T04:30:51;13.00;99.90
13561;DHT22;6852;51.686;5.314;2022-07-06T04:33:18;13.00;99.90
13561;DHT22;6852;51.686;5.314;2022-07-06T04:35:45;13.10;99.90
13561;DHT22;6852;51.686;5.314;2022-07-06T04:38:12;13.10;99.90
13561;DHT22;6852;51.686;5.314;2022-07-06T04:40:39;13.20;99.90
13561;DHT22;6852;51.686;5.314;2022-07-06T04:43:05;13.20;99.90
13561;DHT22;6852;51.686;5.314;2022-07-06T04:45:32;13.20;99.90
13561;DHT22;6852;51.686;5.314;2022-07-06T04:47:59;13.20;99.90
13561;DHT22;6852;51.686;5.314;2022-07-06T04:50:26;13.10;99.90
13561;DHT22;6852;51.686;5.314;2022-07-06T04:52:53;13.10;99.90
13561;DHT22;6852;51.686;5.314;2022-07-06T04:55:20;13.00;99.90
13561;DHT22;6852;51.686;5.314;2022-07-06T04:57:47;13.10;99.90
13561;DHT22;6852;51.686;5.314;2022-07-06T05:00:14;13.30;99.90
13561;DHT22;6852;51.686;5.314;2022-07-06T05:02:41;13.20;99.90
13561;DHT22;6852;51.686;5.314;2022-07-06T05:05:08;13.20;99.90
13561;DHT22;6852;51.686;5.314;2022-07-06T05:07:36;13.30;99.90
13561;DHT22;6852;51.686;5.314;2022-07-06T05:10:08;13.50;99.90
13561;DHT22;6852;51.686;5.314;2022-07-06T05:12:35;13.50;99.90
13561;DHT22;6852;51.686;5.314;2022-07-06T05:15:03;13.70;99.90
13561;DHT22;6852;51.686;5.314;2022-07-06T05:17:30;13.60;99.90
13561;DHT22;6852;51.686;5.314;2022-07-06T05:19:57;13.70;99.90
13561;DHT22;6852;51.686;5.314;2022-07-06T05:22:24;13.70;99.90
13561;DHT22;6852;51.686;5.314;2022-07-06T05:24:51;13.90;99.90
13561;DHT22;6852;51.686;5.314;2022-07-06T05:27:18;14.00;99.90
13561;DHT22;6852;51.686;5.314;2022-07-06T05:29:45;14.10;99.90
13561;DHT22;6852;51.686;5.314;2022-07-06T05:32:12;14.10;99.90
13561;DHT22;6852;51.686;5.314;2022-07-06T05:34:39;14.30;99.90
13561;DHT22;6852;51.686;5.314;2022-07-06T05:37:06;14.20;99.90
13561;DHT22;6852;51.686;5.314;2022-07-06T05:39:33;14.30;99.90
13561;DHT22;6852;51.686;5.314;2022-07-06T05:42:00;14.50;99.90
13561;DHT22;6852;51.686;5.314;2022-07-06T05:44:27;14.50;99.90
13561;DHT22;6852;51.686;5.314;2022-07-06T05:46:54;14.70;99.90
13561;DHT22;6852;51.686;5.314;2022-07-06T05:49:41;14.70;99.90
13561;DHT22;6852;51.686;5.314;2022-07-06T05:52:26;14.70;99.90
13561;DHT22;6852;51.686;5.314;2022-07-06T05:54:53;14.70;99.90
13561;DHT22;6852;51.686;5.314;2022-07-06T05:57:20;14.90;99.90
13561;DHT22;6852;51.686;5.314;2022-07-06T05:59:47;15.00;99.90
13561;DHT22;6852;51.686;5.314;2022-07-06T06:02:14;15.10;99.90
13561;DHT22;6852;51.686;5.314;2022-07-06T06:04:41;15.40;99.90
13561;DHT22;6852;51.686;5.314;2022-07-06T06:07:09;15.30;99.90
13561;DHT22;6852;51.686;5.314;2022-07-06T06:09:36;15.40;99.90
13561;DHT22;6852;51.686;5.314;2022-07-06T06:12:03;15.50;99.90
13561;DHT22;6852;51.686;5.314;2022-07-06T06:14:31;15.50;99.90
13561;DHT22;6852;51.686;5.314;2022-07-06T06:16:58;15.50;99.90
13561;DHT22;6852;51.686;5.314;2022-07-06T06:19:25;15.70;99.90
13561;DHT22;6852;51.686;5.314;2022-07-06T06:21:52;15.60;1.00
13561;DHT22;6852;51.686;5.314;2022-07-06T06:24:19;15.70;23.30
13561;DHT22;6852;51.686;5.314;2022-07-06T06:26:46;15.70;1.00
13561;DHT22;6852;51.686;5.314;2022-07-06T06:29:13;15.80;1.00
13561;DHT22;6852;51.686;5.314;2022-07-06T06:31:40;15.80;1.00
13561;DHT22;6852;51.686;5.314;2022-07-06T06:34:07;16.10;1.00
13561;DHT22;6852;51.686;5.314;2022-07-06T06:36:34;16.10;23.10
13561;DHT22;6852;51.686;5.314;2022-07-06T06:39:01;16.20;1.00
13561;DHT22;6852;51.686;5.314;2022-07-06T06:41:29;16.20;99.90
13561;DHT22;6852;51.686;5.314;2022-07-06T06:43:56;16.30;99.90
13561;DHT22;6852;51.686;5.314;2022-07-06T06:46:23;16.20;99.90
13561;DHT22;6852;51.686;5.314;2022-07-06T06:48:50;16.00;99.90
13561;DHT22;6852;51.686;5.314;2022-07-06T06:51:17;16.20;99.90
13561;DHT22;6852;51.686;5.314;2022-07-06T06:53:43;16.30;99.90
13561;DHT22;6852;51.686;5.314;2022-07-06T06:56:10;16.60;99.90
13561;DHT22;6852;51.686;5.314;2022-07-06T06:58:37;17.10;90.30
13561;DHT22;6852;51.686;5.314;2022-07-06T07:01:25;17.30;46.30
13561;DHT22;6852;51.686;5.314;2022-07-06T07:03:52;17.40;1.00
13561;DHT22;6852;51.686;5.314;2022-07-06T07:06:19;17.50;83.80
13561;DHT22;6852;51.686;5.314;2022-07-06T07:08:46;17.60;1.00
13561;DHT22;6852;51.686;5.314;2022-07-06T07:11:14;17.50;1.00
13561;DHT22;6852;51.686;5.314;2022-07-06T07:13:40;17.70;1.00
13561;DHT22;6852;51.686;5.314;2022-07-06T07:16:08;17.90;57.70
13561;DHT22;6852;51.686;5.314;2022-07-06T07:18:35;18.00;99.90
13561;DHT22;6852;51.686;5.314;2022-07-06T07:21:02;17.90;1.00
13561;DHT22;6852;51.686;5.314;2022-07-06T07:23:29;18.00;1.00
13561;DHT22;6852;51.686;5.314;2022-07-06T07:25:56;18.50;74.70
13561;DHT22;6852;51.686;5.314;2022-07-06T07:28:23;18.90;1.00
13561;DHT22;6852;51.686;5.314;2022-07-06T07:30:51;19.00;1.00
13561;DHT22;6852;51.686;5.314;2022-07-06T07:33:18;18.90;99.90
13561;DHT22;6852;51.686;5.314;2022-07-06T07:35:45;19.20;99.90
13561;DHT22;6852;51.686;5.314;2022-07-06T07:38:12;18.80;1.00
13561;DHT22;6852;51.686;5.314;2022-07-06T07:40:39;18.90;1.00
13561;DHT22;6852;51.686;5.314;2022-07-06T07:43:06;19.10;1.00
13561;DHT22;6852;51.686;5.314;2022-07-06T07:45:32;18.90;1.00
13561;DHT22;6852;51.686;5.314;2022-07-06T07:47:59;18.90;1.00
13561;DHT22;6852;51.686;5.314;2022-07-06T07:50:26;19.30;72.70
13561;DHT22;6852;51.686;5.314;2022-07-06T07:52:53;19.50;95.00
13561;DHT22;6852;51.686;5.314;2022-07-06T07:55:20;20.00;1.00
13561;DHT22;6852;51.686;5.314;2022-07-06T07:58:06;19.70;82.60
13561;DHT22;6852;51.686;5.314;2022-07-06T08:00:33;19.90;1.00
13561;DHT22;6852;51.686;5.314;2022-07-06T08:03:00;20.00;1.00
13561;DHT22;6852;51.686;5.314;2022-07-06T08:05:27;20.30;1.00
13561;DHT22;6852;51.686;5.314;2022-07-06T08:07:54;20.00;1.00
13561;DHT22;6852;51.686;5.314;2022-07-06T08:10:22;19.70;37.70
13561;DHT22;6852;51.686;5.314;2022-07-06T08:12:49;20.00;30.40
13561;DHT22;6852;51.686;5.314;2022-07-06T08:15:16;20.30;51.20
13561;DHT22;6852;51.686;5.314;2022-07-06T08:17:43;20.50;65.90
13561;DHT22;6852;51.686;5.314;2022-07-06T08:20:11;20.20;23.30
13561;DHT22;6852;51.686;5.314;2022-07-06T08:22:38;19.90;26.20
13561;DHT22;6852;51.686;5.314;2022-07-06T08:25:05;19.70;25.20
13561;DHT22;6852;51.686;5.314;2022-07-06T08:27:33;19.80;16.70
13561;DHT22;6852;51.686;5.314;2022-07-06T08:33:41;19.90;14.50
13561;DHT22;6852;51.686;5.314;2022-07-06T08:36:08;19.80;1.00
13561;DHT22;6852;51.686;5.314;2022-07-06T08:38:35;20.10;1.00
13561;DHT22;6852;51.686;5.314;2022-07-06T08:41:02;20.10;1.00
13561;DHT22;6852;51.686;5.314;2022-07-06T08:43:33;20.60;1.00
13561;DHT22;6852;51.686;5.314;2022-07-06T08:46:01;20.90;1.00
13561;DHT22;6852;51.686;5.314;2022-07-06T08:48:34;20.70;1.00
13561;DHT22;6852;51.686;5.314;2022-07-06T08:51:03;21.30;1.00
13561;DHT22;6852;51.686;5.314;2022-07-06T08:53:30;21.30;1.00
13561;DHT22;6852;51.686;5.314;2022-07-06T08:55:57;20.80;1.00
13561;DHT22;6852;51.686;5.314;2022-07-06T08:58:25;20.60;99.90
13561;DHT22;6852;51.686;5.314;2022-07-06T09:00:56;19.90;1.00
13561;DHT22;6852;51.686;5.314;2022-07-06T09:03:24;19.90;1.00
13561;DHT22;6852;51.686;5.314;2022-07-06T09:05:52;20.30;99.90
13561;DHT22;6852;51.686;5.314;2022-07-06T09:08:22;20.40;1.00
13561;DHT22;6852;51.686;5.314;2022-07-06T09:10:51;20.60;1.00
13561;DHT22;6852;51.686;5.314;2022-07-06T09:13:18;21.10;1.00
13561;DHT22;6852;51.686;5.314;2022-07-06T09:15:45;21.40;99.90
13561;DHT22;6852;51.686;5.314;2022-07-06T09:18:12;21.50;1.00
13561;DHT22;6852;51.686;5.314;2022-07-06T09:20:40;21.40;1.00
13561;DHT22;6852;51.686;5.314;2022-07-06T09:23:08;21.50;1.00
13561;DHT22;6852;51.686;5.314;2022-07-06T09:25:42;22.20;1.00
13561;DHT22;6852;51.686;5.314;2022-07-06T09:28:09;22.80;34.10
13561;DHT22;6852;51.686;5.314;2022-07-06T09:30:37;23.40;1.00
13561;DHT22;6852;51.686;5.314;2022-07-06T09:33:08;22.90;1.00
13561;DHT22;6852;51.686;5.314;2022-07-06T09:35:37;22.30;1.00
13561;DHT22;6852;51.686;5.314;2022-07-06T09:38:13;22.00;1.00
13561;DHT22;6852;51.686;5.314;2022-07-06T09:40:45;22.00;1.00
13561;DHT22;6852;51.686;5.314;2022-07-06T09:43:23;21.70;1.00
13561;DHT22;6852;51.686;5.314;2022-07-06T09:45:55;21.60;1.00
13561;DHT22;6852;51.686;5.314;2022-07-06T09:48:27;21.50;1.00
13561;DHT22;6852;51.686;5.314;2022-07-06T09:51:02;22.00;1.00
13561;DHT22;6852;51.686;5.314;2022-07-06T09:53:29;21.20;1.00
13561;DHT22;6852;51.686;5.314;2022-07-06T09:55:57;21.30;1.00
13561;DHT22;6852;51.686;5.314;2022-07-06T09:58:28;21.40;1.00
13561;DHT22;6852;51.686;5.314;2022-07-06T10:01:26;21.50;1.00
13561;DHT22;6852;51.686;5.314;2022-07-06T10:03:54;21.70;1.00
13561;DHT22;6852;51.686;5.314;2022-07-06T10:06:24;21.40;1.00
13561;DHT22;6852;51.686;5.314;2022-07-06T10:08:54;21.30;1.00
13561;DHT22;6852;51.686;5.314;2022-07-06T10:11:22;21.20;1.00
13561;DHT22;6852;51.686;5.314;2022-07-06T10:13:55;21.30;1.00
13561;DHT22;6852;51.686;5.314;2022-07-06T10:16:23;21.20;1.00
13561;DHT22;6852;51.686;5.314;2022-07-06T10:18:52;21.10;1.00
13561;DHT22;6852;51.686;5.314;2022-07-06T10:21:22;21.00;1.00
13561;DHT22;6852;51.686;5.314;2022-07-06T10:23:50;21.20;1.00
13561;DHT22;6852;51.686;5.314;2022-07-06T10:26:18;21.50;1.00
13561;DHT22;6852;51.686;5.314;2022-07-06T10:28:45;21.40;1.00
13561;DHT22;6852;51.686;5.314;2022-07-06T10:31:15;21.10;1.00
13561;DHT22;6852;51.686;5.314;2022-07-06T10:33:46;21.30;1.00
13561;DHT22;6852;51.686;5.314;2022-07-06T10:36:14;21.10;1.00
13561;DHT22;6852;51.686;5.314;2022-07-06T10:38:48;21.30;1.00
13561;DHT22;6852;51.686;5.314;2022-07-06T10:41:16;21.40;1.00
13561;DHT22;6852;51.686;5.314;2022-07-06T10:43:46;21.40;1.00
13561;DHT22;6852;51.686;5.314;2022-07-06T10:46:15;21.30;1.00
13561;DHT22;6852;51.686;5.314;2022-07-06T10:48:44;21.20;1.00
13561;DHT22;6852;51.686;5.314;2022-07-06T10:51:22;21.20;1.00
13561;DHT22;6852;51.686;5.314;2022-07-06T10:54:00;21.80;1.00
13561;DHT22;6852;51.686;5.314;2022-07-06T10:56:33;21.60;1.00
13561;DHT22;6852;51.686;5.314;2022-07-06T10:59:22;21.40;1.00
13561;DHT22;6852;51.686;5.314;2022-07-06T11:04:38;22.00;1.00
13561;DHT22;6852;51.686;5.314;2022-07-06T11:07:10;21.90;1.00
13561;DHT22;6852;51.686;5.314;2022-07-06T11:09:38;22.20;1.00
13561;DHT22;6852;51.686;5.314;2022-07-06T11:12:18;22.10;1.00
13561;DHT22;6852;51.686;5.314;2022-07-06T11:14:51;21.70;1.00
13561;DHT22;6852;51.686;5.314;2022-07-06T11:17:18;22.40;1.00
13561;DHT22;6852;51.686;5.314;2022-07-06T11:22:17;22.90;1.00
13561;DHT22;6852;51.686;5.314;2022-07-06T11:24:45;23.90;99.90
13561;DHT22;6852;51.686;5.314;2022-07-06T11:27:13;24.00;99.90
13561;DHT22;6852;51.686;5.314;2022-07-06T11:29:40;24.30;99.90
13561;DHT22;6852;51.686;5.314;2022-07-06T11:32:08;24.60;99.90
13561;DHT22;6852;51.686;5.314;2022-07-06T11:34:43;24.50;99.90
13561;DHT22;6852;51.686;5.314;2022-07-06T11:37:12;24.40;48.30
13561;DHT22;6852;51.686;5.314;2022-07-06T11:39:42;23.30;1.00
13561;DHT22;6852;51.686;5.314;2022-07-06T11:42:11;23.80;1.00
13561;DHT22;6852;51.686;5.314;2022-07-06T11:44:39;23.90;99.90
13561;DHT22;6852;51.686;5.314;2022-07-06T11:47:09;24.20;99.90
13561;DHT22;6852;51.686;5.314;2022-07-06T11:49:37;23.60;1.00
13561;DHT22;6852;51.686;5.314;2022-07-06T11:52:08;24.70;99.90
13561;DHT22;6852;51.686;5.314;2022-07-06T11:54:35;23.90;42.70
13561;DHT22;6852;51.686;5.314;2022-07-06T11:57:02;24.70;99.90
13561;DHT22;6852;51.686;5.314;2022-07-06T11:59:34;24.20;99.90
13561;DHT22;6852;51.686;5.314;2022-07-06T12:02:05;23.80;52.20
13561;DHT22;6852;51.686;5.314;2022-07-06T12:04:35;23.70;1.00
13561;DHT22;6852;51.686;5.314;2022-07-06T12:07:04;24.10;98.00
13561;DHT22;6852;51.686;5.314;2022-07-06T12:09:36;24.60;27.60
13561;DHT22;6852;51.686;5.314;2022-07-06T12:12:04;24.00;99.90
13561;DHT22;6852;51.686;5.314;2022-07-06T12:14:33;23.10;1.00
13561;DHT22;6852;51.686;5.314;2022-07-06T12:17:08;23.50;99.90
13561;DHT22;6852;51.686;5.314;2022-07-06T12:19:36;23.80;1.00
13561;DHT22;6852;51.686;5.314;2022-07-06T12:22:05;23.50;99.90
13561;DHT22;6852;51.686;5.314;2022-07-06T12:24:34;23.70;99.90
13561;DHT22;6852;51.686;5.314;2022-07-06T12:27:12;24.00;99.90
13561;DHT22;6852;51.686;5.314;2022-07-06T12:29:40;24.40;99.90
13561;DHT22;6852;51.686;5.314;2022-07-06T12:32:13;24.60;99.90
13561;DHT22;6852;51.686;5.314;2022-07-06T12:34:40;25.30;99.90
13561;DHT22;6852;51.686;5.314;2022-07-06T12:37:08;24.70;99.90
13561;DHT22;6852;51.686;5.314;2022-07-06T12:39:46;24.50;99.90
13561;DHT22;6852;51.686;5.314;2022-07-06T12:42:15;24.70;99.90
13561;DHT22;6852;51.686;5.314;2022-07-06T12:44:50;25.20;99.90
13561;DHT22;6852;51.686;5.314;2022-07-06T12:47:19;24.70;99.90
13561;DHT22;6852;51.686;5.314;2022-07-06T12:49:48;24.50;99.90
13561;DHT22;6852;51.686;5.314;2022-07-06T12:52:16;23.90;99.90
13561;DHT22;6852;51.686;5.314;2022-07-06T12:54:48;23.70;33.30
13561;DHT22;6852;51.686;5.314;2022-07-06T12:57:23;23.70;69.10
13561;DHT22;6852;51.686;5.314;2022-07-06T12:59:57;23.90;99.90
13561;DHT22;6852;51.686;5.314;2022-07-06T13:02:27;23.90;99.90
13561;DHT22;6852;51.686;5.314;2022-07-06T13:05:16;24.70;99.90
13561;DHT22;6852;51.686;5.314;2022-07-06T13:07:48;24.40;99.90
13561;DHT22;6852;51.686;5.314;2022-07-06T13:10:16;23.70;99.90
13561;DHT22;6852;51.686;5.314;2022-07-06T13:12:43;24.40;93.10
13561;DHT22;6852;51.686;5.314;2022-07-06T13:15:11;23.90;99.90
13561;DHT22;6852;51.686;5.314;2022-07-06T13:17:38;23.40;99.90
13561;DHT22;6852;51.686;5.314;2022-07-06T13:20:09;24.00;56.20
13561;DHT22;6852;51.686;5.314;2022-07-06T13:22:38;23.90;99.90
13561;DHT22;6852;51.686;5.314;2022-07-06T13:25:06;23.80;12.80
13561;DHT22;6852;51.686;5.314;2022-07-06T13:27:33;23.80;1.00
13561;DHT22;6852;51.686;5.314;2022-07-06T13:30:00;23.20;1.00
13561;DHT22;6852;51.686;5.314;2022-07-06T13:32:27;23.90;1.00
13561;DHT22;6852;51.686;5.314;2022-07-06T13:34:54;24.00;1.00
13561;DHT22;6852;51.686;5.314;2022-07-06T13:37:21;24.10;73.60
13561;DHT22;6852;51.686;5.314;2022-07-06T13:39:48;24.00;90.60
13561;DHT22;6852;51.686;5.314;2022-07-06T13:42:15;23.30;1.00
13561;DHT22;6852;51.686;5.314;2022-07-06T13:44:42;23.30;1.00
13561;DHT22;6852;51.686;5.314;2022-07-06T13:47:10;23.00;1.00
13561;DHT22;6852;51.686;5.314;2022-07-06T13:49:37;23.00;1.00
13561;DHT22;6852;51.686;5.314;2022-07-06T13:52:04;23.10;1.00
13561;DHT22;6852;51.686;5.314;2022-07-06T13:54:32;23.30;1.00
13561;DHT22;6852;51.686;5.314;2022-07-06T13:57:03;23.30;1.00
13561;DHT22;6852;51.686;5.314;2022-07-06T13:59:31;23.10;1.00
13561;DHT22;6852;51.686;5.314;2022-07-06T14:01:58;22.70;1.00
13561;DHT22;6852;51.686;5.314;2022-07-06T14:04:25;23.10;1.00
13561;DHT22;6852;51.686;5.314;2022-07-06T14:06:52;23.40;1.00
13561;DHT22;6852;51.686;5.314;2022-07-06T14:09:19;23.40;1.00
13561;DHT22;6852;51.686;5.314;2022-07-06T14:11:46;23.30;1.00
13561;DHT22;6852;51.686;5.314;2022-07-06T14:14:13;23.20;1.00
13561;DHT22;6852;51.686;5.314;2022-07-06T14:16:40;23.70;1.00
13561;DHT22;6852;51.686;5.314;2022-07-06T14:19:08;23.60;1.00
13561;DHT22;6852;51.686;5.314;2022-07-06T14:21:35;22.90;1.00
13561;DHT22;6852;51.686;5.314;2022-07-06T14:24:02;23.00;1.00
13561;DHT22;6852;51.686;5.314;2022-07-06T14:26:29;23.60;1.00
13561;DHT22;6852;51.686;5.314;2022-07-06T14:28:56;23.50;1.00
13561;DHT22;6852;51.686;5.314;2022-07-06T14:31:23;23.30;1.00
13561;DHT22;6852;51.686;5.314;2022-07-06T14:33:51;23.10;1.00
13561;DHT22;6852;51.686;5.314;2022-07-06T14:36:18;23.00;1.00
13561;DHT22;6852;51.686;5.314;2022-07-06T14:38:45;22.90;1.00
13561;DHT22;6852;51.686;5.314;2022-07-06T14:41:12;22.50;1.00
13561;DHT22;6852;51.686;5.314;2022-07-06T14:43:39;22.40;1.00
13561;DHT22;6852;51.686;5.314;2022-07-06T14:46:07;22.50;1.00
13561;DHT22;6852;51.686;5.314;2022-07-06T14:48:34;22.60;1.00
13561;DHT22;6852;51.686;5.314;2022-07-06T14:51:01;22.50;1.00
13561;DHT22;6852;51.686;5.314;2022-07-06T14:53:28;22.40;1.00
13561;DHT22;6852;51.686;5.314;2022-07-06T14:55:55;22.20;1.00
13561;DHT22;6852;51.686;5.314;2022-07-06T14:58:22;22.30;1.00
13561;DHT22;6852;51.686;5.314;2022-07-06T15:00:50;22.30;12.20
13561;DHT22;6852;51.686;5.314;2022-07-06T15:03:25;22.20;1.00
13561;DHT22;6852;51.686;5.314;2022-07-06T15:05:52;22.50;1.30
13561;DHT22;6852;51.686;5.314;2022-07-06T15:08:19;22.60;1.00
13561;DHT22;6852;51.686;5.314;2022-07-06T15:10:46;22.70;1.00
13561;DHT22;6852;51.686;5.314;2022-07-06T15:13:13;22.50;1.00
13561;DHT22;6852;51.686;5.314;2022-07-06T15:15:40;22.60;1.00
13561;DHT22;6852;51.686;5.314;2022-07-06T15:18:22;22.50;14.50
13561;DHT22;6852;51.686;5.314;2022-07-06T15:20:48;22.50;1.00
13561;DHT22;6852;51.686;5.314;2022-07-06T15:23:15;22.40;1.00
13561;DHT22;6852;51.686;5.314;2022-07-06T15:25:43;22.50;1.00
13561;DHT22;6852;51.686;5.314;2022-07-06T15:28:09;22.40;1.00
13561;DHT22;6852;51.686;5.314;2022-07-06T15:30:36;22.40;1.00
13561;DHT22;6852;51.686;5.314;2022-07-06T15:33:04;22.20;1.00
13561;DHT22;6852;51.686;5.314;2022-07-06T15:35:33;22.20;1.00
13561;DHT22;6852;51.686;5.314;2022-07-06T15:38:00;22.10;4.10
13561;DHT22;6852;51.686;5.314;2022-07-06T15:40:33;21.90;32.40
13561;DHT22;6852;51.686;5.314;2022-07-06T15:43:06;22.10;32.80
13561;DHT22;6852;51.686;5.314;2022-07-06T15:45:33;22.20;20.80
13561;DHT22;6852;51.686;5.314;2022-07-06T15:48:00;22.10;12.80
13561;DHT22;6852;51.686;5.314;2022-07-06T15:50:27;21.90;21.00
13561;DHT22;6852;51.686;5.314;2022-07-06T15:52:54;21.80;41.30
13561;DHT22;6852;51.686;5.314;2022-07-06T15:55:21;21.90;55.40
13561;DHT22;6852;51.686;5.314;2022-07-06T15:57:48;22.00;58.70
13561;DHT22;6852;51.686;5.314;2022-07-06T16:00:15;22.00;79.70
13561;DHT22;6852;51.686;5.314;2022-07-06T16:02:42;21.90;88.60
13561;DHT22;6852;51.686;5.314;2022-07-06T16:05:09;21.80;93.70
13561;DHT22;6852;51.686;5.314;2022-07-06T16:07:36;22.00;99.90
13561;DHT22;6852;51.686;5.314;2022-07-06T16:10:23;22.00;99.90